Time;durP1;ratioP1;P1;durP2;ratioP2;P2;SDS_P1;SDS_P2;PMS_P1;PMS_P2;Temp;Humidity;BMP_temperature;BMP_pressure;BME280_temperature;BME280_humidity;BME280_pressure;Samples;Min_cycle;Max_cycle;Signal;HPM_P1;HPM_P2
2023/03/06 15:14:16;;;;;;;3.03;1.05;;;7.10;99.90;;;;;;5109661;27;20388;-56
2023/03/06 15:16:41;;;;;;;1.65;1.00;;;6.90;99.90;;;;;;5109881;28;20040;-56
2023/03/06 15:19:17;;;;;;;2.35;0.90;;;6.90;99.90;;;;;;5108573;28;20040;-56
2023/03/06 15:21:50;;;;;;;0.95;0.80;;;6.80;99.90;;;;;;5109696;28;20035;-56
2023/03/06 15:24:41;;;;;;;3.15;0.90;;;6.80;99.90;;;;;;5109475;28;20449;-56
2023/03/06 15:27:18;;;;;;;6.07;0.80;;;6.80;99.90;;;;;;5106476;27;20552;-56
2023/03/06 15:29:44;;;;;;;2.38;0.68;;;6.70;99.90;;;;;;5109588;28;20065;-55
2023/03/06 15:32:28;;;;;;;2.55;0.90;;;6.70;99.90;;;;;;5109422;28;20438;-56
2023/03/06 15:35:33;;;;;;;2.35;1.08;;;6.60;99.90;;;;;;5109288;28;20043;-56
2023/03/06 15:38:00;;;;;;;2.40;1.23;;;6.60;99.90;;;;;;5046797;28;20112;-55
2023/03/06 15:40:29;;;;;;;2.08;0.98;;;6.60;99.90;;;;;;5046483;28;20120;-56
2023/03/06 15:42:57;;;;;;;;;;;6.60;99.90;;;;;;5046880;28;20057;-56
2023/03/06 15:45:26;;;;;;;5.35;1.10;;;6.60;99.90;;;;;;5046441;28;20000;-55
2023/03/06 15:47:54;;;;;;;2.35;1.10;;;6.50;99.90;;;;;;5046273;28;20084;-56
2023/03/06 15:50:22;;;;;;;3.22;1.00;;;6.50;99.90;;;;;;5046459;28;20087;-56
2023/03/06 15:52:48;;;;;;;1.58;1.30;;;6.50;99.90;;;;;;5046532;28;20068;-56
2023/03/06 15:55:16;;;;;;;2.33;1.10;;;6.50;99.90;;;;;;5046388;28;20042;-56
2023/03/06 15:57:51;;;;;;;5.10;1.20;;;6.50;99.90;;;;;;5046495;28;20455;-55
2023/03/06 16:00:21;;;;;;;2.40;1.17;;;6.50;99.90;;;;;;5029380;28;20084;-56
2023/03/06 16:02:46;;;;;;;3.15;1.65;;;6.40;99.90;;;;;;5045973;28;20064;-56
2023/03/06 16:05:16;;;;;;;5.05;1.30;;;6.40;99.90;;;;;;5046126;28;20041;-56
2023/03/06 16:07:42;;;;;;;5.57;1.40;;;6.40;99.90;;;;;;5049967;28;20049;-56
2023/03/06 16:10:29;;;;;;;3.15;1.27;;;6.40;99.90;;;;;;5088262;28;20044;-56
2023/03/06 16:13:01;;;;;;;7.15;1.20;;;6.40;99.90;;;;;;5089202;28;20057;-56
2023/03/06 16:15:29;;;;;;;3.65;1.40;;;6.40;99.90;;;;;;5108696;28;20035;-56
2023/03/06 16:17:55;;;;;;;3.78;1.33;;;6.30;99.90;;;;;;5108368;28;20081;-56
2023/03/06 16:20:23;;;;;;;2.25;1.38;;;6.40;99.90;;;;;;5108601;28;20028;-56
2023/03/06 16:22:49;;;;;;;2.95;1.38;;;6.40;99.90;;;;;;5108334;28;20090;-56
2023/03/06 16:25:16;;;;;;;5.57;1.35;;;6.30;99.90;;;;;;5095928;28;20032;-55
2023/03/06 16:27:59;;;;;;;2.58;1.08;;;6.20;99.90;;;;;;5094935;28;20040;-55
2023/03/06 16:30:30;;;;;;;2.10;1.20;;;6.20;99.90;;;;;;5094896;28;20145;-56
2023/03/06 16:32:57;;;;;;;2.22;1.33;;;6.10;99.90;;;;;;5094543;28;20068;-56
2023/03/06 16:35:23;;;;;;;3.70;1.52;;;5.80;99.90;;;;;;5094654;28;20430;-56
2023/03/06 16:37:49;;;;;;;2.80;1.75;;;5.60;99.90;;;;;;5094620;28;20047;-56
2023/03/06 16:40:41;;;;;;;3.13;1.90;;;5.40;99.90;;;;;;5094679;28;20032;-56
2023/03/06 16:43:08;;;;;;;4.97;1.90;;;5.10;99.90;;;;;;5091234;28;20052;-56
2023/03/06 16:45:39;;;;;;;3.03;1.85;;;5.00;99.90;;;;;;5094698;28;20097;-56
2023/03/06 16:48:05;;;;;;;3.28;2.42;;;4.90;99.90;;;;;;5094858;28;20040;-56
2023/03/06 16:50:40;;;;;;;5.93;3.10;;;4.80;99.90;;;;;;5094618;28;20032;-56
2023/03/06 16:53:06;;;;;;;5.20;3.00;;;4.70;99.90;;;;;;5094172;28;20152;-56
2023/03/06 16:55:32;;;;;;;7.15;3.38;;;4.60;99.90;;;;;;5094436;28;20066;-56
2023/03/06 16:57:58;;;;;;;5.80;3.60;;;4.60;99.90;;;;;;5094158;28;20484;-56
2023/03/06 17:00:28;;;;;;;4.88;3.75;;;4.50;99.90;;;;;;5094612;28;20044;-56
2023/03/06 17:02:54;;;;;;;5.22;3.67;;;4.40;99.90;;;;;;5094200;28;20413;-56
2023/03/06 17:05:20;;;;;;;5.63;3.80;;;4.40;99.90;;;;;;5094379;28;20039;-56
2023/03/06 17:07:46;;;;;;;8.38;3.97;;;4.30;99.90;;;;;;5094141;28;20032;-56
2023/03/06 17:10:14;;;;;;;7.05;3.90;;;4.20;99.90;;;;;;5094107;28;20554;-56
2023/03/06 17:12:41;;;;;;;6.38;4.07;;;4.30;99.90;;;;;;5093685;28;20055;-56
2023/03/06 17:15:07;;;;;;;7.82;3.60;;;4.20;99.90;;;;;;5093943;28;20477;-56
2023/03/06 17:17:33;;;;;;;6.20;3.75;;;4.20;99.90;;;;;;5093872;28;20040;-56
2023/03/06 17:19:59;;;;;;;5.88;3.95;;;4.20;99.90;;;;;;5093802;28;20488;-56
2023/03/06 17:22:26;;;;;;;5.65;4.22;;;4.20;99.90;;;;;;5092898;28;20127;-56
2023/03/06 17:24:52;;;;;;;6.18;4.80;;;4.20;99.90;;;;;;5092142;28;20048;-56
2023/03/06 17:27:22;;;;;;;7.85;5.05;;;4.20;99.90;;;;;;5093701;28;20039;-56
2023/03/06 17:29:47;;;;;;;8.18;5.22;;;4.20;99.90;;;;;;5091969;28;20052;-56
2023/03/06 17:32:13;;;;;;;6.32;5.05;;;4.20;99.90;;;;;;5095637;28;20110;-56
2023/03/06 17:34:39;;;;;;;6.60;4.47;;;4.10;99.90;;;;;;5114258;28;20495;-55
2023/03/06 17:37:05;;;;;;;6.72;4.75;;;4.00;99.90;;;;;;5113230;28;20085;-56
2023/03/06 17:39:36;;;;;;;8.25;5.63;;;4.00;99.90;;;;;;5112515;28;20039;-56
2023/03/06 17:42:02;;;;;;;8.25;4.78;;;3.90;99.90;;;;;;5113794;28;20438;-56
2023/03/06 17:44:29;;;;;;;8.02;5.45;;;4.00;99.90;;;;;;5113777;28;20086;-56
2023/03/06 17:46:55;;;;;;;8.20;5.63;;;3.90;99.90;;;;;;5112561;28;20122;-56
2023/03/06 17:49:22;;;;;;;7.90;5.20;;;3.90;99.90;;;;;;5113914;28;20162;-56
2023/03/06 17:51:48;;;;;;;8.68;5.72;;;3.90;99.90;;;;;;5113879;28;20128;-56
2023/03/06 17:54:14;;;;;;;7.82;5.25;;;3.80;99.90;;;;;;5113595;28;20040;-56
2023/03/06 17:56:40;;;;;;;8.85;6.13;;;3.80;99.90;;;;;;5113839;28;20074;-56
2023/03/06 17:59:06;;;;;;;8.70;6.45;;;3.80;99.90;;;;;;5112202;28;20047;-56
2023/03/06 18:01:32;;;;;;;9.20;6.10;;;3.80;99.90;;;;;;5113480;28;20043;-56
2023/03/06 18:03:58;;;;;;;10.40;7.07;;;3.80;99.90;;;;;;5113345;28;20075;-56
2023/03/06 18:06:26;;;;;;;9.10;6.53;;;3.60;99.90;;;;;;5113233;28;20048;-56
2023/03/06 18:08:53;;;;;;;11.97;6.60;;;3.60;99.90;;;;;;5113494;27;20369;-56
2023/03/06 18:11:19;;;;;;;9.82;7.38;;;3.60;99.90;;;;;;5112173;28;20288;-56
2023/03/06 18:13:47;;;;;;;9.23;7.38;;;3.60;99.90;;;;;;5112877;28;20485;-56
2023/03/06 18:16:16;;;;;;;8.60;6.75;;;3.60;99.90;;;;;;5113336;28;20082;-56
2023/03/06 18:18:43;;;;;;;13.68;7.88;;;3.60;99.90;;;;;;5112189;28;20400;-56
2023/03/06 18:21:11;;;;;;;11.70;8.20;;;3.60;99.90;;;;;;5113086;28;20036;-56
2023/03/06 18:23:38;;;;;;;10.70;7.78;;;3.80;99.90;;;;;;5112888;28;20054;-56
2023/03/06 18:26:10;;;;;;;12.32;8.55;;;3.70;99.90;;;;;;5113245;28;20093;-56
2023/03/06 18:28:41;;;;;;;10.02;7.47;;;3.70;99.90;;;;;;5113225;28;20035;-55
2023/03/06 18:31:17;;;;;;;11.75;8.85;;;3.70;99.90;;;;;;5113286;28;20036;-56
2023/03/06 18:33:43;;;;;;;12.02;8.98;;;3.70;99.90;;;;;;5112641;28;20043;-56
2023/03/06 18:36:09;;;;;;;14.25;9.43;;;3.60;99.90;;;;;;5112870;28;20118;-58
2023/03/06 18:38:36;;;;;;;12.80;9.90;;;3.50;99.90;;;;;;5112720;28;20027;-56
2023/03/06 18:41:02;;;;;;;13.88;10.18;;;3.60;99.90;;;;;;5112864;28;20043;-56
2023/03/06 18:43:28;;;;;;;13.82;10.15;;;3.70;99.90;;;;;;5112549;28;20043;-56
2023/03/06 18:45:55;;;;;;;15.07;10.32;;;3.60;99.90;;;;;;5112493;28;20039;-56
2023/03/06 18:48:22;;;;;;;14.90;11.52;;;3.60;99.90;;;;;;5112264;28;20047;-56
2023/03/06 18:50:49;;;;;;;14.93;11.13;;;3.50;99.90;;;;;;5112394;28;20122;-56
2023/03/06 18:53:18;;;;;;;15.55;11.70;;;3.50;99.90;;;;;;5112418;28;20541;-56
2023/03/06 18:55:53;;;;;;;15.20;11.98;;;3.50;99.90;;;;;;5111294;28;20032;-56
2023/03/06 18:58:20;;;;;;;15.23;12.45;;;3.60;99.90;;;;;;5112864;28;20073;-56
2023/03/06 19:00:46;;;;;;;16.05;12.57;;;3.60;99.90;;;;;;5112522;28;20128;-56
2023/03/06 19:03:13;;;;;;;16.23;12.02;;;3.60;99.90;;;;;;5112606;28;20348;-56
2023/03/06 19:05:47;;;;;;;15.15;11.60;;;3.50;99.90;;;;;;5112522;28;20523;-56
2023/03/06 19:08:14;;;;;;;13.88;11.55;;;3.40;99.90;;;;;;5111532;28;20047;-56
2023/03/06 19:10:44;;;;;;;15.38;11.85;;;3.40;99.90;;;;;;5110684;28;20511;-56
2023/03/06 19:13:11;;;;;;;17.67;12.23;;;3.40;99.90;;;;;;5110962;28;20056;-56
2023/03/06 19:15:42;;;;;;;18.00;13.13;;;3.40;99.90;;;;;;5098229;28;20051;-56
2023/03/06 19:18:09;;;;;;;16.55;11.77;;;3.20;99.90;;;;;;5091768;28;20516;-56
2023/03/06 19:20:35;;;;;;;17.38;12.27;;;3.40;99.90;;;;;;5105240;28;20498;-56
2023/03/06 19:23:00;;;;;;;18.60;12.13;;;3.40;99.90;;;;;;5112293;28;20074;-56
2023/03/06 19:25:26;;;;;;;17.55;11.52;;;3.20;99.90;;;;;;5112198;28;20040;-56
2023/03/06 19:27:52;;;;;;;18.90;12.45;;;3.30;99.90;;;;;;5110821;28;20050;-56
2023/03/06 19:30:17;;;;;;;17.98;12.18;;;3.20;99.90;;;;;;5110335;28;20503;-56
2023/03/06 19:32:44;;;;;;;17.25;11.50;;;3.20;99.90;;;;;;5112095;28;20042;-56
2023/03/06 19:35:11;;;;;;;17.33;11.90;;;3.40;99.90;;;;;;5112268;28;20419;-56
2023/03/06 19:37:37;;;;;;;18.95;13.43;;;3.30;99.90;;;;;;5112116;28;20116;-56
2023/03/06 19:40:06;;;;;;;23.17;12.85;;;3.20;99.90;;;;;;5112104;28;20453;-56
2023/03/06 19:42:32;;;;;;;;;;;3.20;99.90;;;;;;5112318;28;20547;-56
2023/03/06 19:44:57;;;;;;;22.10;13.75;;;3.20;99.90;;;;;;5099071;28;20007;-56
2023/03/06 19:47:23;;;;;;;19.42;12.50;;;3.20;99.90;;;;;;5112050;28;20071;-56
2023/03/06 19:49:49;;;;;;;23.92;14.20;;;3.20;99.90;;;;;;5094587;28;20036;-56
2023/03/06 19:52:15;;;;;;;22.60;13.98;;;3.40;99.90;;;;;;5091416;28;20040;-56
2023/03/06 19:54:41;;;;;;;21.17;13.82;;;3.20;99.90;;;;;;5091530;28;20046;-56
2023/03/06 19:57:06;;;;;;;22.98;13.85;;;3.30;99.90;;;;;;5092235;28;20048;-56
2023/03/06 19:59:32;;;;;;;21.67;13.82;;;3.20;99.90;;;;;;5093821;28;20079;-56
2023/03/06 20:01:58;;;;;;;22.23;13.70;;;3.20;99.90;;;;;;5095725;28;20090;-57
2023/03/06 20:04:23;;;;;;;20.02;12.88;;;3.30;99.90;;;;;;5095396;28;20040;-56
2023/03/06 20:06:50;;;;;;;22.73;13.68;;;3.40;99.90;;;;;;5095247;28;20054;-56
2023/03/06 20:09:17;;;;;;;21.10;14.10;;;3.50;99.90;;;;;;5095208;28;20042;-56
2023/03/06 20:11:42;;;;;;;24.92;14.07;;;3.40;99.90;;;;;;5095510;28;20032;-56
2023/03/06 20:14:10;;;;;;;26.02;15.80;;;3.40;99.90;;;;;;5094802;28;20056;-56
2023/03/06 20:16:36;;;;;;;23.65;14.27;;;3.50;99.90;;;;;;5094891;28;20473;-57
2023/03/06 20:19:02;;;;;;;25.92;14.68;;;3.50;99.90;;;;;;5095107;28;20036;-57
2023/03/06 20:21:32;;;;;;;23.17;15.77;;;3.40;99.90;;;;;;5094950;28;20042;-57
2023/03/06 20:23:58;;;;;;;26.40;16.17;;;3.40;99.90;;;;;;5095001;28;20072;-56
2023/03/06 20:26:26;;;;;;;24.60;15.70;;;3.50;99.90;;;;;;5095020;28;20086;-57
2023/03/06 20:28:51;;;;;;;27.98;16.10;;;3.30;99.90;;;;;;5095031;28;20047;-57
2023/03/06 20:31:20;;;;;;;29.92;18.13;;;3.40;99.90;;;;;;5094775;28;20036;-56
2023/03/06 20:33:48;;;;;;;28.70;17.87;;;3.30;99.90;;;;;;5094630;28;20371;-57
2023/03/06 20:36:27;;;;;;;29.77;17.05;;;3.40;99.90;;;;;;5102878;28;20038;-56
2023/03/06 20:38:54;;;;;;;28.20;18.02;;;3.40;99.90;;;;;;5113966;28;20040;-56
2023/03/06 20:41:25;;;;;;;29.38;18.30;;;3.60;99.90;;;;;;5114918;28;20130;-57
2023/03/06 20:43:52;;;;;;;28.63;16.83;;;3.60;99.90;;;;;;5114948;28;20043;-57
2023/03/06 20:46:20;;;;;;;32.75;18.25;;;3.50;99.90;;;;;;5114777;28;20051;-57
2023/03/06 20:48:51;;;;;;;31.83;18.20;;;3.60;99.90;;;;;;5114881;28;20035;-56
2023/03/06 20:51:22;;;;;;;30.92;17.17;;;3.40;99.90;;;;;;5114918;28;20330;-57
2023/03/06 20:53:50;;;;;;;33.15;18.85;;;3.40;99.90;;;;;;5115005;28;20047;-56
2023/03/06 20:56:18;;;;;;;33.58;19.80;;;4.30;99.90;;;;;;5113491;28;20043;-56
2023/03/06 20:58:44;;;;;;;30.45;17.88;;;3.40;99.90;;;;;;5114646;28;20039;-57
2023/03/06 21:01:23;;;;;;;29.05;17.77;;;3.50;99.90;;;;;;5100851;28;20050;-57
2023/03/06 21:03:49;;;;;;;32.50;18.85;;;3.70;99.90;;;;;;5094213;28;20066;-57
2023/03/06 21:06:15;;;;;;;33.00;19.13;;;3.60;99.90;;;;;;5094120;28;20044;-57
2023/03/06 21:08:41;;;;;;;33.83;17.95;;;3.70;99.90;;;;;;5093657;28;20031;-57
2023/03/06 21:11:07;;;;;;;31.23;18.63;;;3.70;99.90;;;;;;5093399;28;20481;-57
2023/03/06 21:13:32;;;;;;;34.00;18.65;;;3.50;99.90;;;;;;5093466;28;20068;-57
2023/03/06 21:15:58;;;;;;;30.08;17.58;;;3.80;99.90;;;;;;5103124;28;20069;-57
2023/03/06 21:18:24;;;;;;;30.05;16.58;;;3.50;99.90;;;;;;5113879;28;20088;-57
2023/03/06 21:20:50;;;;;;;30.02;16.67;;;3.60;99.90;;;;;;5114023;28;20036;-57
2023/03/06 21:23:15;;;;;;;42.90;17.45;;;3.60;99.90;;;;;;5114126;28;20071;-57
2023/03/06 21:25:48;;;;;;;28.13;17.38;;;3.50;99.90;;;;;;5101760;28;20068;-56
2023/03/06 21:28:15;;;;;;;29.73;16.73;;;3.50;99.90;;;;;;5093329;28;20039;-57
2023/03/06 21:30:41;;;;;;;27.75;17.08;;;3.40;99.90;;;;;;5093227;28;20044;-56
2023/03/06 21:33:09;;;;;;;34.17;18.73;;;3.60;99.90;;;;;;5093189;28;20078;-57
2023/03/06 21:35:39;;;;;;;32.55;18.80;;;3.60;99.90;;;;;;5093468;28;20036;-58
2023/03/06 21:38:05;;;;;;;27.67;16.35;;;3.30;99.90;;;;;;5093278;28;20445;-58
2023/03/06 21:40:32;;;;;;;28.30;16.83;;;3.40;99.90;;;;;;5093297;28;20094;-58
2023/03/06 21:42:57;;;;;;;30.90;17.23;;;3.30;99.90;;;;;;5092951;28;20040;-57
2023/03/06 21:45:23;;;;;;;26.00;17.52;;;3.60;99.90;;;;;;5093141;28;20028;-57
2023/03/06 21:47:49;;;;;;;26.33;16.50;;;3.30;99.90;;;;;;5092835;28;20036;-57
2023/03/06 21:50:15;;;;;;;26.30;15.80;;;3.40;99.90;;;;;;5095943;28;20043;-58
2023/03/06 21:52:41;;;;;;;29.63;17.92;;;3.50;99.90;;;;;;5113125;28;20035;-57
2023/03/06 21:55:08;;;;;;;29.33;16.52;;;3.30;99.90;;;;;;5113251;28;20043;-57
2023/03/06 21:57:33;;;;;;;29.63;16.38;;;3.50;99.90;;;;;;5111781;28;20097;-57
2023/03/06 21:59:59;;;;;;;26.30;16.20;;;3.50;99.90;;;;;;5113051;28;20035;-57
2023/03/06 22:02:24;;;;;;;27.52;16.83;;;3.10;99.90;;;;;;5113290;28;20061;-58
2023/03/06 22:04:51;;;;;;;31.77;17.90;;;3.10;99.90;;;;;;5113085;28;20048;-57
2023/03/06 22:07:20;;;;;;;25.98;16.60;;;3.00;99.90;;;;;;5113333;28;20392;-58
2023/03/06 22:09:46;;;;;;;26.65;15.43;;;3.00;99.90;;;;;;5111924;28;20104;-57
2023/03/06 22:12:12;;;;;;;28.40;17.17;;;3.40;99.90;;;;;;5113134;28;20075;-57
2023/03/06 22:14:37;;;;;;;28.38;17.42;;;3.40;99.90;;;;;;5112697;28;20140;-57
2023/03/06 22:17:03;;;;;;;27.20;17.10;;;3.50;99.90;;;;;;5096100;28;20039;-57
2023/03/06 22:19:29;;;;;;;28.02;16.58;;;3.40;99.90;;;;;;5092508;28;20042;-57
2023/03/06 22:21:54;;;;;;;30.13;17.27;;;3.00;99.90;;;;;;5091909;28;20412;-57
2023/03/06 22:24:20;;;;;;;31.73;18.52;;;3.10;99.90;;;;;;5092269;28;20081;-57
2023/03/06 22:26:46;;;;;;;29.60;18.00;;;3.10;99.90;;;;;;5092380;28;20105;-57
2023/03/06 22:29:11;;;;;;;26.55;16.20;;;3.10;99.90;;;;;;5092192;28;20089;-57
2023/03/06 22:31:37;;;;;;;27.77;16.13;;;3.20;99.90;;;;;;5092323;28;20036;-57
2023/03/06 22:34:02;;;;;;;28.80;16.40;;;3.10;99.90;;;;;;5092118;28;20072;-57
2023/03/06 22:36:29;;;;;;;28.70;17.30;;;3.20;99.90;;;;;;5092279;28;20123;-57
2023/03/06 22:39:00;;;;;;;28.95;16.92;;;3.30;99.90;;;;;;5091897;28;20039;-58
2023/03/06 22:41:27;;;;;;;27.92;16.58;;;3.40;99.90;;;;;;5092146;28;20032;-57
2023/03/06 22:43:57;;;;;;;29.83;17.15;;;4.00;99.90;;;;;;5091994;28;20036;-57
2023/03/06 22:46:23;;;;;;;30.67;17.85;;;3.10;99.90;;;;;;5091840;28;20036;-57
2023/03/06 22:48:49;;;;;;;27.75;16.70;;;3.10;99.90;;;;;;5092084;28;20032;-57
2023/03/06 22:51:19;;;;;;;33.65;18.25;;;3.40;99.90;;;;;;5090280;28;20459;-57
2023/03/06 22:53:46;;;;;;;28.95;17.90;;;3.10;99.90;;;;;;5092005;28;20047;-57
2023/03/06 22:56:15;;;;;;;30.80;17.90;;;3.50;99.90;;;;;;5092002;28;20043;-57
2023/03/06 22:58:43;;;;;;;27.88;16.27;;;3.20;99.90;;;;;;5092218;28;20036;-57
2023/03/06 23:01:10;;;;;;;31.63;17.55;;;3.40;99.90;;;;;;5091945;28;20101;-57
2023/03/06 23:03:37;;;;;;;26.40;16.80;;;3.30;99.90;;;;;;5091926;28;20036;-57
2023/03/06 23:06:16;;;;;;;25.13;15.10;;;3.60;99.90;;;;;;5091727;28;20397;-57
2023/03/06 23:08:43;;;;;;;26.63;16.20;;;3.50;99.90;;;;;;5091707;28;20050;-57
2023/03/06 23:11:12;;;;;;;30.13;16.85;;;3.50;99.90;;;;;;5091799;28;20044;-57
2023/03/06 23:13:38;;;;;;;27.70;16.37;;;3.40;99.90;;;;;;5091555;28;20493;-57
2023/03/06 23:16:05;;;;;;;26.95;16.48;;;3.60;99.90;;;;;;5091950;28;20281;-57
2023/03/06 23:18:32;;;;;;;30.45;17.20;;;3.40;99.90;;;;;;5091742;28;20520;-57
2023/03/06 23:20:58;;;;;;;28.73;16.95;;;3.60;99.90;;;;;;5096617;28;20447;-57
2023/03/06 23:23:24;;;;;;;32.80;16.90;;;3.50;99.90;;;;;;5091814;28;20040;-57
2023/03/06 23:25:50;;;;;;;28.15;17.00;;;3.60;99.90;;;;;;5091967;28;20040;-57
2023/03/06 23:28:17;;;;;;;30.35;16.98;;;3.40;99.90;;;;;;5092062;28;20063;-57
2023/03/06 23:30:43;;;;;;;32.00;16.88;;;3.40;99.90;;;;;;5091837;28;20032;-57
2023/03/06 23:33:09;;;;;;;27.83;15.85;;;3.70;99.90;;;;;;5091937;28;20040;-57
2023/03/06 23:35:37;;;;;;;30.00;16.55;;;3.40;99.90;;;;;;5095463;28;20040;-57
2023/03/06 23:38:03;;;;;;;25.63;15.80;;;3.30;99.90;;;;;;5095794;28;20500;-57
2023/03/06 23:40:30;;;;;;;30.38;15.93;;;3.50;99.90;;;;;;5095870;28;20032;-57
2023/03/06 23:42:55;;;;;;;28.15;16.05;;;3.70;99.90;;;;;;5095935;28;20044;-57
2023/03/06 23:45:21;;;;;;;28.75;14.65;;;3.70;99.90;;;;;;5095711;28;20051;-57
2023/03/06 23:47:47;;;;;;;26.48;15.57;;;3.50;99.90;;;;;;5095525;28;20401;-57
2023/03/06 23:50:13;;;;;;;24.55;13.90;;;3.60;99.90;;;;;;5095838;28;20044;-57
2023/03/06 23:52:39;;;;;;;23.00;14.23;;;3.70;99.90;;;;;;5095537;28;20545;-58
2023/03/06 23:55:05;;;;;;;26.60;14.43;;;3.50;99.90;;;;;;5095367;28;20517;-57
2023/03/06 23:57:31;;;;;;;29.00;14.15;;;3.50;99.90;;;;;;5093676;28;20070;-57
2023/03/06 23:59:57;;;;;;;23.58;14.23;;;3.50;99.90;;;;;;5095625;28;20036;-57
